sensor_id;sensor_type;location;lat;lon;timestamp;pressure;altitude;pressure_sealevel;temperature;humidity
20115;BME280;10218;42.874;25.320;2023-04-15T00:02:15;96345.53;;;13.15;100.00
20115;BME280;10218;42.874;25.320;2023-04-15T00:04:45;96353.78;;;13.20;100.00
20115;BME280;10218;42.874;25.320;2023-04-15T00:07:13;96341.59;;;13.18;100.00
20115;BME280;10218;42.874;25.320;2023-04-15T00:09:41;96338.69;;;13.26;100.00
20115;BME280;10218;42.874;25.320;2023-04-15T00:12:11;96339.31;;;13.35;100.00
20115;BME280;10218;42.874;25.320;2023-04-15T00:14:38;96352.91;;;13.26;100.00
20115;BME280;10218;42.874;25.320;2023-04-15T00:17:05;96365.50;;;13.26;100.00
20115;BME280;10218;42.874;25.320;2023-04-15T00:19:33;96356.22;;;13.28;100.00
20115;BME280;10218;42.874;25.320;2023-04-15T00:22:00;96380.37;;;13.28;100.00
20115;BME280;10218;42.874;25.320;2023-04-15T00:24:27;96378.28;;;13.44;100.00
20115;BME280;10218;42.874;25.320;2023-04-15T00:26:55;96372.13;;;13.23;100.00
20115;BME280;10218;42.874;25.320;2023-04-15T00:29:22;96373.94;;;13.43;100.00
20115;BME280;10218;42.874;25.320;2023-04-15T00:31:49;96366.34;;;13.40;100.00
20115;BME280;10218;42.874;25.320;2023-04-15T00:34:16;96357.25;;;13.21;100.00
20115;BME280;10218;42.874;25.320;2023-04-15T00:36:43;96362.03;;;13.25;100.00
20115;BME280;10218;42.874;25.320;2023-04-15T00:39:10;96348.63;;;13.25;100.00
20115;BME280;10218;42.874;25.320;2023-04-15T00:41:38;96344.06;;;13.19;100.00
20115;BME280;10218;42.874;25.320;2023-04-15T00:44:06;96341.56;;;13.31;100.00
20115;BME280;10218;42.874;25.320;2023-04-15T00:46:35;96341.56;;;13.31;100.00
20115;BME280;10218;42.874;25.320;2023-04-15T00:49:04;96348.63;;;13.19;100.00
20115;BME280;10218;42.874;25.320;2023-04-15T00:51:35;96353.97;;;13.25;100.00
20115;BME280;10218;42.874;25.320;2023-04-15T00:54:03;96367.75;;;13.49;100.00
20115;BME280;10218;42.874;25.320;2023-04-15T00:56:34;96367.13;;;13.47;100.00
20115;BME280;10218;42.874;25.320;2023-04-15T00:59:02;96361.38;;;13.37;100.00
20115;BME280;10218;42.874;25.320;2023-04-15T01:01:29;96353.94;;;13.32;100.00
20115;BME280;10218;42.874;25.320;2023-04-15T01:03:57;96340.09;;;13.42;100.00
20115;BME280;10218;42.874;25.320;2023-04-15T01:06:25;96332.44;;;13.52;100.00
20115;BME280;10218;42.874;25.320;2023-04-15T01:08:53;96323.59;;;13.45;100.00
20115;BME280;10218;42.874;25.320;2023-04-15T01:11:22;96326.28;;;13.45;100.00
20115;BME280;10218;42.874;25.320;2023-04-15T01:13:50;96330.00;;;13.44;100.00
20115;BME280;10218;42.874;25.320;2023-04-15T01:16:18;96341.16;;;13.41;100.00
20115;BME280;10218;42.874;25.320;2023-04-15T01:18:46;96348.13;;;13.48;100.00
20115;BME280;10218;42.874;25.320;2023-04-15T01:21:13;96359.91;;;13.47;100.00
20115;BME280;10218;42.874;25.320;2023-04-15T01:23:40;96356.19;;;13.42;100.00
20115;BME280;10218;42.874;25.320;2023-04-15T01:26:07;96350.97;;;13.73;100.00
20115;BME280;10218;42.874;25.320;2023-04-15T01:28:36;96345.84;;;13.65;100.00
20115;BME280;10218;42.874;25.320;2023-04-15T01:31:14;96353.47;;;13.68;100.00
20115;BME280;10218;42.874;25.320;2023-04-15T01:33:42;96339.84;;;13.56;100.00
20115;BME280;10218;42.874;25.320;2023-04-15T01:36:09;96338.38;;;13.67;100.00
20115;BME280;10218;42.874;25.320;2023-04-15T01:38:37;96343.94;;;13.72;100.00
20115;BME280;10218;42.874;25.320;2023-04-15T01:41:04;96340.56;;;13.96;100.00
20115;BME280;10218;42.874;25.320;2023-04-15T01:43:34;96344.75;;;13.79;100.00
20115;BME280;10218;42.874;25.320;2023-04-15T01:46:02;96341.81;;;13.94;100.00
20115;BME280;10218;42.874;25.320;2023-04-15T01:48:31;96318.28;;;13.89;100.00
20115;BME280;10218;42.874;25.320;2023-04-15T01:50:58;96314.31;;;13.92;100.00
20115;BME280;10218;42.874;25.320;2023-04-15T01:53:25;96324.69;;;13.82;100.00
20115;BME280;10218;42.874;25.320;2023-04-15T01:55:52;96337.78;;;13.65;100.00
20115;BME280;10218;42.874;25.320;2023-04-15T01:58:19;96344.75;;;13.79;100.00
20115;BME280;10218;42.874;25.320;2023-04-15T02:00:47;96358.94;;;13.93;100.00
20115;BME280;10218;42.874;25.320;2023-04-15T02:03:15;96364.38;;;13.73;100.00
20115;BME280;10218;42.874;25.320;2023-04-15T02:05:42;96365.00;;;13.75;100.00
20115;BME280;10218;42.874;25.320;2023-04-15T02:08:09;96358.22;;;13.66;100.00
20115;BME280;10218;42.874;25.320;2023-04-15T02:10:37;96362.59;;;13.54;100.00
20115;BME280;10218;42.874;25.320;2023-04-15T02:13:04;96346.72;;;13.46;100.00
20115;BME280;10218;42.874;25.320;2023-04-15T02:15:31;96349.78;;;13.49;100.00
20115;BME280;10218;42.874;25.320;2023-04-15T02:17:59;96347.09;;;13.56;100.00
20115;BME280;10218;42.874;25.320;2023-04-15T02:20:26;96352.03;;;13.52;100.00
20115;BME280;10218;42.874;25.320;2023-04-15T02:22:56;96344.00;;;13.59;100.00
20115;BME280;10218;42.874;25.320;2023-04-15T02:25:23;96332.03;;;13.48;100.00
20115;BME280;10218;42.874;25.320;2023-04-15T02:27:50;96335.75;;;13.54;100.00
20115;BME280;10218;42.874;25.320;2023-04-15T02:30:18;96365.66;;;13.64;100.00
20115;BME280;10218;42.874;25.320;2023-04-15T02:32:45;96363.84;;;14.09;100.00
20115;BME280;10218;42.874;25.320;2023-04-15T02:35:12;96366.69;;;13.56;100.00
20115;BME280;10218;42.874;25.320;2023-04-15T02:37:40;96369.44;;;13.23;100.00
20115;BME280;10218;42.874;25.320;2023-04-15T02:40:09;96376.66;;;13.30;100.00
20115;BME280;10218;42.874;25.320;2023-04-15T02:42:40;96375.81;;;13.09;100.00
20115;BME280;10218;42.874;25.320;2023-04-15T02:45:08;96384.03;;;12.68;100.00
20115;BME280;10218;42.874;25.320;2023-04-15T02:47:35;96382.19;;;12.69;100.00
20115;BME280;10218;42.874;25.320;2023-04-15T02:50:03;96388.16;;;12.64;100.00
20115;BME280;10218;42.874;25.320;2023-04-15T02:52:31;96394.09;;;12.60;100.00
20115;BME280;10218;42.874;25.320;2023-04-15T02:54:58;96402.38;;;12.58;100.00
20115;BME280;10218;42.874;25.320;2023-04-15T02:57:28;96390.66;;;12.79;100.00
20115;BME280;10218;42.874;25.320;2023-04-15T02:59:56;96397.22;;;12.70;100.00
20115;BME280;10218;42.874;25.320;2023-04-15T03:02:23;96388.84;;;12.12;100.00
20115;BME280;10218;42.874;25.320;2023-04-15T03:04:50;96390.16;;;12.42;100.00
20115;BME280;10218;42.874;25.320;2023-04-15T03:07:18;96388.94;;;12.52;100.00
20115;BME280;10218;42.874;25.320;2023-04-15T03:09:46;96393.91;;;12.48;100.00
20115;BME280;10218;42.874;25.320;2023-04-15T03:12:13;96398.28;;;12.82;100.00
20115;BME280;10218;42.874;25.320;2023-04-15T03:14:40;96410.41;;;12.65;100.00
20115;BME280;10218;42.874;25.320;2023-04-15T03:17:07;96409.56;;;12.58;100.00
20115;BME280;10218;42.874;25.320;2023-04-15T03:19:34;96393.41;;;12.18;100.00
20115;BME280;10218;42.874;25.320;2023-04-15T03:22:02;96391.78;;;12.30;100.00
20115;BME280;10218;42.874;25.320;2023-04-15T03:24:29;96390.88;;;12.10;100.00
20115;BME280;10218;42.874;25.320;2023-04-15T03:26:57;96394.53;;;11.96;100.00
20115;BME280;10218;42.874;25.320;2023-04-15T03:29:24;96386.44;;;12.37;100.00
20115;BME280;10218;42.874;25.320;2023-04-15T03:31:51;96390.53;;;12.26;100.00
20115;BME280;10218;42.874;25.320;2023-04-15T03:34:18;96390.72;;;12.18;100.00
20115;BME280;10218;42.874;25.320;2023-04-15T03:36:46;96410.72;;;12.22;100.00
20115;BME280;10218;42.874;25.320;2023-04-15T03:39:13;96439.75;;;11.84;100.00
20115;BME280;10218;42.874;25.320;2023-04-15T03:41:41;96445.06;;;12.12;100.00
20115;BME280;10218;42.874;25.320;2023-04-15T03:44:08;96451.97;;;11.66;100.00
20115;BME280;10218;42.874;25.320;2023-04-15T03:46:35;96452.38;;;11.63;100.00
20115;BME280;10218;42.874;25.320;2023-04-15T03:49:02;96464.41;;;11.24;100.00
20115;BME280;10218;42.874;25.320;2023-04-15T03:51:29;96470.06;;;11.64;100.00
20115;BME280;10218;42.874;25.320;2023-04-15T03:53:57;96474.56;;;11.56;100.00
20115;BME280;10218;42.874;25.320;2023-04-15T03:56:24;96480.72;;;11.85;100.00
20115;BME280;10218;42.874;25.320;2023-04-15T03:58:51;96484.66;;;11.89;100.00
20115;BME280;10218;42.874;25.320;2023-04-15T04:01:18;96481.31;;;11.80;100.00
20115;BME280;10218;42.874;25.320;2023-04-15T04:03:46;96471.63;;;11.73;100.00
20115;BME280;10218;42.874;25.320;2023-04-15T04:06:13;96468.53;;;11.76;100.00
20115;BME280;10218;42.874;25.320;2023-04-15T04:08:41;96498.84;;;11.83;100.00
20115;BME280;10218;42.874;25.320;2023-04-15T04:11:08;96490.00;;;11.82;100.00
20115;BME280;10218;42.874;25.320;2023-04-15T04:13:35;96480.25;;;12.03;100.00
20115;BME280;10218;42.874;25.320;2023-04-15T04:16:02;96487.19;;;11.97;100.00
20115;BME280;10218;42.874;25.320;2023-04-15T04:18:33;96499.88;;;11.82;100.00
20115;BME280;10218;42.874;25.320;2023-04-15T04:21:00;96517.84;;;11.94;100.00
20115;BME280;10218;42.874;25.320;2023-04-15T04:23:27;96509.47;;;12.04;100.00
20115;BME280;10218;42.874;25.320;2023-04-15T04:25:54;96516.69;;;11.76;100.00
20115;BME280;10218;42.874;25.320;2023-04-15T04:28:21;96525.06;;;11.94;100.00
20115;BME280;10218;42.874;25.320;2023-04-15T04:30:48;96533.31;;;11.99;100.00
20115;BME280;10218;42.874;25.320;2023-04-15T04:33:15;96546.88;;;11.91;100.00
20115;BME280;10218;42.874;25.320;2023-04-15T04:35:42;96560.97;;;12.06;100.00
20115;BME280;10218;42.874;25.320;2023-04-15T04:38:09;96563.31;;;11.88;100.00
20115;BME280;10218;42.874;25.320;2023-04-15T04:40:37;96568.34;;;12.04;100.00
20115;BME280;10218;42.874;25.320;2023-04-15T04:43:04;96569.66;;;12.08;100.00
20115;BME280;10218;42.874;25.320;2023-04-15T04:45:31;96563.47;;;12.14;100.00
20115;BME280;10218;42.874;25.320;2023-04-15T04:47:58;96557.22;;;12.00;100.00
20115;BME280;10218;42.874;25.320;2023-04-15T04:50:25;96556.75;;;12.18;100.00
20115;BME280;10218;42.874;25.320;2023-04-15T04:52:52;96563.00;;;12.04;100.00
20115;BME280;10218;42.874;25.320;2023-04-15T04:55:20;96556.75;;;12.25;100.00
20115;BME280;10218;42.874;25.320;2023-04-15T04:57:47;96555.00;;;12.38;100.00
20115;BME280;10218;42.874;25.320;2023-04-15T05:00:14;96562.31;;;12.58;100.00
20115;BME280;10218;42.874;25.320;2023-04-15T05:02:41;96557.66;;;12.86;100.00
20115;BME280;10218;42.874;25.320;2023-04-15T05:05:10;96553.84;;;12.61;100.00
20115;BME280;10218;42.874;25.320;2023-04-15T05:07:37;96552.75;;;12.42;100.00
20115;BME280;10218;42.874;25.320;2023-04-15T05:10:06;96543.09;;;12.48;100.00
20115;BME280;10218;42.874;25.320;2023-04-15T05:12:33;96543.13;;;12.54;100.00
20115;BME280;10218;42.874;25.320;2023-04-15T05:15:01;96544.78;;;12.62;100.00
20115;BME280;10218;42.874;25.320;2023-04-15T05:17:28;96541.44;;;13.07;100.00
20115;BME280;10218;42.874;25.320;2023-04-15T05:19:57;96555.47;;;13.03;100.00
20115;BME280;10218;42.874;25.320;2023-04-15T05:22:24;96554.50;;;13.17;100.00
20115;BME280;10218;42.874;25.320;2023-04-15T05:24:51;96542.31;;;13.14;100.00
20115;BME280;10218;42.874;25.320;2023-04-15T05:27:18;96559.84;;;13.17;100.00
20115;BME280;10218;42.874;25.320;2023-04-15T05:29:46;96550.44;;;13.41;100.00
20115;BME280;10218;42.874;25.320;2023-04-15T05:32:13;96547.34;;;13.50;100.00
20115;BME280;10218;42.874;25.320;2023-04-15T05:34:40;96541.75;;;13.65;100.00
20115;BME280;10218;42.874;25.320;2023-04-15T05:37:07;96536.56;;;14.09;100.00
20115;BME280;10218;42.874;25.320;2023-04-15T05:39:34;96538.63;;;14.21;100.00
20115;BME280;10218;42.874;25.320;2023-04-15T05:42:01;96545.25;;;14.11;100.00
20115;BME280;10218;42.874;25.320;2023-04-15T05:44:29;96532.63;;;14.19;100.00
20115;BME280;10218;42.874;25.320;2023-04-15T05:46:56;96530.28;;;14.55;100.00
20115;BME280;10218;42.874;25.320;2023-04-15T05:49:23;96537.97;;;14.32;100.00
20115;BME280;10218;42.874;25.320;2023-04-15T05:51:50;96531.00;;;14.04;100.00
20115;BME280;10218;42.874;25.320;2023-04-15T05:54:18;96534.63;;;14.56;100.00
20115;BME280;10218;42.874;25.320;2023-04-15T05:56:45;96534.09;;;14.85;100.00
20115;BME280;10218;42.874;25.320;2023-04-15T05:59:12;96542.31;;;14.39;100.00
20115;BME280;10218;42.874;25.320;2023-04-15T06:01:39;96544.34;;;14.50;100.00
20115;BME280;10218;42.874;25.320;2023-04-15T06:04:07;96545.44;;;15.63;100.00
20115;BME280;10218;42.874;25.320;2023-04-15T06:06:34;96560.25;;;15.41;100.00
20115;BME280;10218;42.874;25.320;2023-04-15T06:09:01;96556.72;;;16.03;96.18
20115;BME280;10218;42.874;25.320;2023-04-15T06:11:28;96572.53;;;16.18;95.02
20115;BME280;10218;42.874;25.320;2023-04-15T06:13:55;96570.94;;;16.35;89.17
20115;BME280;10218;42.874;25.320;2023-04-15T06:16:22;96569.72;;;16.06;89.17
20115;BME280;10218;42.874;25.320;2023-04-15T06:18:49;96579.13;;;16.22;91.30
20115;BME280;10218;42.874;25.320;2023-04-15T06:21:16;96584.56;;;16.15;79.08
20115;BME280;10218;42.874;25.320;2023-04-15T06:23:43;96584.53;;;16.22;67.14
20115;BME280;10218;42.874;25.320;2023-04-15T06:26:10;96593.53;;;16.34;62.57
20115;BME280;10218;42.874;25.320;2023-04-15T06:28:37;96593.59;;;17.07;58.20
20115;BME280;10218;42.874;25.320;2023-04-15T06:31:04;96592.38;;;17.21;56.59
20115;BME280;10218;42.874;25.320;2023-04-15T06:33:32;96587.69;;;16.37;57.02
20115;BME280;10218;42.874;25.320;2023-04-15T06:35:59;96595.78;;;16.37;50.99
20115;BME280;10218;42.874;25.320;2023-04-15T06:38:26;96604.09;;;16.97;53.16
20115;BME280;10218;42.874;25.320;2023-04-15T06:40:53;96603.28;;;16.78;50.11
20115;BME280;10218;42.874;25.320;2023-04-15T06:43:21;96607.16;;;17.48;48.62
20115;BME280;10218;42.874;25.320;2023-04-15T06:45:48;96598.50;;;16.12;49.30
20115;BME280;10218;42.874;25.320;2023-04-15T06:48:15;96604.75;;;16.06;50.36
20115;BME280;10218;42.874;25.320;2023-04-15T06:50:42;96609.78;;;16.46;49.39
20115;BME280;10218;42.874;25.320;2023-04-15T06:53:09;96612.94;;;17.52;49.96
20115;BME280;10218;42.874;25.320;2023-04-15T06:55:36;96611.09;;;17.94;48.75
20115;BME280;10218;42.874;25.320;2023-04-15T06:58:03;96604.97;;;18.63;47.33
20115;BME280;10218;42.874;25.320;2023-04-15T07:00:30;96611.94;;;17.35;48.74
20115;BME280;10218;42.874;25.320;2023-04-15T07:02:59;96617.63;;;17.75;48.49
20115;BME280;10218;42.874;25.320;2023-04-15T07:05:29;96608.63;;;18.69;46.30
20115;BME280;10218;42.874;25.320;2023-04-15T07:07:58;96607.38;;;19.00;46.43
20115;BME280;10218;42.874;25.320;2023-04-15T07:10:26;96610.47;;;18.45;46.09
20115;BME280;10218;42.874;25.320;2023-04-15T07:12:53;96606.59;;;18.53;47.40
20115;BME280;10218;42.874;25.320;2023-04-15T07:15:20;96614.19;;;19.14;45.40
20115;BME280;10218;42.874;25.320;2023-04-15T07:17:48;96613.78;;;18.82;45.05
20115;BME280;10218;42.874;25.320;2023-04-15T07:20:15;96610.22;;;18.93;43.96
20115;BME280;10218;42.874;25.320;2023-04-15T07:22:42;96609.66;;;17.80;45.41
20115;BME280;10218;42.874;25.320;2023-04-15T07:25:10;96608.84;;;18.67;45.44
20115;BME280;10218;42.874;25.320;2023-04-15T07:27:37;96609.34;;;19.16;43.95
20115;BME280;10218;42.874;25.320;2023-04-15T07:30:04;96609.34;;;19.84;43.85
20115;BME280;10218;42.874;25.320;2023-04-15T07:32:32;96613.81;;;19.10;42.93
20115;BME280;10218;42.874;25.320;2023-04-15T07:34:59;96614.50;;;20.47;42.43
20115;BME280;10218;42.874;25.320;2023-04-15T07:37:26;96615.69;;;20.06;40.77
20115;BME280;10218;42.874;25.320;2023-04-15T07:39:54;96608.91;;;20.54;41.13
20115;BME280;10218;42.874;25.320;2023-04-15T07:42:21;96611.41;;;18.86;42.75
20115;BME280;10218;42.874;25.320;2023-04-15T07:44:48;96613.66;;;17.89;43.79
20115;BME280;10218;42.874;25.320;2023-04-15T07:47:15;96611.84;;;18.24;43.60
20115;BME280;10218;42.874;25.320;2023-04-15T07:49:42;96610.28;;;20.06;41.53
20115;BME280;10218;42.874;25.320;2023-04-15T07:52:10;96616.97;;;19.71;43.17
20115;BME280;10218;42.874;25.320;2023-04-15T07:54:37;96620.19;;;19.56;42.93
20115;BME280;10218;42.874;25.320;2023-04-15T07:57:04;96624.47;;;18.42;43.85
20115;BME280;10218;42.874;25.320;2023-04-15T07:59:31;96621.66;;;18.49;44.69
20115;BME280;10218;42.874;25.320;2023-04-15T08:01:59;96620.94;;;19.40;43.86
20115;BME280;10218;42.874;25.320;2023-04-15T08:04:27;96626.53;;;19.21;42.53
20115;BME280;10218;42.874;25.320;2023-04-15T08:06:54;96623.19;;;19.71;45.08
20115;BME280;10218;42.874;25.320;2023-04-15T08:09:21;96623.31;;;19.93;43.46
20115;BME280;10218;42.874;25.320;2023-04-15T08:11:48;96629.44;;;19.32;42.86
20115;BME280;10218;42.874;25.320;2023-04-15T08:14:16;96628.34;;;19.04;44.65
20115;BME280;10218;42.874;25.320;2023-04-15T08:16:43;96643.84;;;18.27;45.10
20115;BME280;10218;42.874;25.320;2023-04-15T08:19:10;96642.53;;;18.30;46.48
20115;BME280;10218;42.874;25.320;2023-04-15T08:21:37;96645.75;;;18.85;43.17
20115;BME280;10218;42.874;25.320;2023-04-15T08:24:05;96642.72;;;18.82;42.53
20115;BME280;10218;42.874;25.320;2023-04-15T08:26:32;96639.13;;;18.34;42.72
20115;BME280;10218;42.874;25.320;2023-04-15T08:28:59;96641.59;;;19.29;41.46
20115;BME280;10218;42.874;25.320;2023-04-15T08:31:28;96641.88;;;20.79;40.90
20115;BME280;10218;42.874;25.320;2023-04-15T08:33:56;96636.78;;;20.66;40.11
20115;BME280;10218;42.874;25.320;2023-04-15T08:36:23;96628.72;;;21.48;40.13
20115;BME280;10218;42.874;25.320;2023-04-15T08:38:50;96637.47;;;21.55;38.14
20115;BME280;10218;42.874;25.320;2023-04-15T08:41:22;96628.94;;;21.25;38.39
20115;BME280;10218;42.874;25.320;2023-04-15T08:43:57;96622.31;;;20.44;40.60
20115;BME280;10218;42.874;25.320;2023-04-15T08:46:28;96624.00;;;20.17;40.99
20115;BME280;10218;42.874;25.320;2023-04-15T08:48:57;96617.03;;;20.71;39.45
20115;BME280;10218;42.874;25.320;2023-04-15T08:51:24;96622.94;;;20.68;38.62
20115;BME280;10218;42.874;25.320;2023-04-15T08:53:53;96624.41;;;20.92;38.15
20115;BME280;10218;42.874;25.320;2023-04-15T08:56:24;96622.94;;;20.01;40.17
20115;BME280;10218;42.874;25.320;2023-04-15T08:58:53;96614.25;;;20.49;39.27
20115;BME280;10218;42.874;25.320;2023-04-15T09:01:20;96618.16;;;20.08;38.72
20115;BME280;10218;42.874;25.320;2023-04-15T09:03:48;96614.63;;;19.62;39.76
20115;BME280;10218;42.874;25.320;2023-04-15T09:06:21;96609.06;;;19.69;39.68
20115;BME280;10218;42.874;25.320;2023-04-15T09:08:49;96609.50;;;19.09;41.23
20115;BME280;10218;42.874;25.320;2023-04-15T09:11:16;96597.97;;;19.02;41.63
20115;BME280;10218;42.874;25.320;2023-04-15T09:13:45;96613.88;;;18.87;42.74
20115;BME280;10218;42.874;25.320;2023-04-15T09:16:12;96612.72;;;19.35;41.25
20115;BME280;10218;42.874;25.320;2023-04-15T09:18:40;96607.75;;;18.80;42.28
20115;BME280;10218;42.874;25.320;2023-04-15T09:21:09;96597.12;;;19.42;42.65
20115;BME280;10218;42.874;25.320;2023-04-15T09:23:38;96599.84;;;19.98;40.48
20115;BME280;10218;42.874;25.320;2023-04-15T09:26:06;96599.09;;;19.30;41.79
20115;BME280;10218;42.874;25.320;2023-04-15T09:28:40;96602.97;;;20.24;41.98
20115;BME280;10218;42.874;25.320;2023-04-15T09:31:08;96595.75;;;20.63;42.13
20115;BME280;10218;42.874;25.320;2023-04-15T09:33:53;96607.22;;;21.08;39.97
20115;BME280;10218;42.874;25.320;2023-04-15T09:36:20;96601.41;;;19.38;41.54
20115;BME280;10218;42.874;25.320;2023-04-15T09:38:56;96598.81;;;19.31;42.10
20115;BME280;10218;42.874;25.320;2023-04-15T09:41:24;96601.53;;;21.75;38.96
20115;BME280;10218;42.874;25.320;2023-04-15T09:43:51;96583.34;;;22.02;38.62
20115;BME280;10218;42.874;25.320;2023-04-15T09:46:19;96598.66;;;21.87;37.20
20115;BME280;10218;42.874;25.320;2023-04-15T09:48:46;96592.38;;;21.59;39.71
20115;BME280;10218;42.874;25.320;2023-04-15T09:51:13;96596.63;;;21.72;39.42
20115;BME280;10218;42.874;25.320;2023-04-15T09:53:41;96593.34;;;21.97;39.31
20115;BME280;10218;42.874;25.320;2023-04-15T09:56:08;96584.50;;;21.85;37.84
20115;BME280;10218;42.874;25.320;2023-04-15T09:58:36;96582.88;;;21.84;39.80
20115;BME280;10218;42.874;25.320;2023-04-15T10:01:05;96583.34;;;20.67;39.68
20115;BME280;10218;42.874;25.320;2023-04-15T10:03:34;96594.34;;;22.17;36.85
20115;BME280;10218;42.874;25.320;2023-04-15T10:06:03;96597.25;;;21.84;37.46
20115;BME280;10218;42.874;25.320;2023-04-15T10:08:32;96582.25;;;20.68;37.99
20115;BME280;10218;42.874;25.320;2023-04-15T10:11:01;96584.44;;;20.87;37.70
20115;BME280;10218;42.874;25.320;2023-04-15T10:13:30;96592.16;;;21.39;39.27
20115;BME280;10218;42.874;25.320;2023-04-15T10:16:10;96588.84;;;22.39;35.75
20115;BME280;10218;42.874;25.320;2023-04-15T10:18:43;96594.03;;;22.83;35.27
20115;BME280;10218;42.874;25.320;2023-04-15T10:21:10;96583.38;;;24.41;36.82
20115;BME280;10218;42.874;25.320;2023-04-15T10:23:39;96585.00;;;24.62;34.28
20115;BME280;10218;42.874;25.320;2023-04-15T10:26:07;96582.53;;;24.71;33.65
20115;BME280;10218;42.874;25.320;2023-04-15T10:28:38;96586.09;;;23.28;32.58
20115;BME280;10218;42.874;25.320;2023-04-15T10:31:05;96594.13;;;22.98;34.45
20115;BME280;10218;42.874;25.320;2023-04-15T10:33:34;96583.00;;;23.05;34.92
20115;BME280;10218;42.874;25.320;2023-04-15T10:36:01;96579.31;;;22.79;35.88
20115;BME280;10218;42.874;25.320;2023-04-15T10:41:22;96575.69;;;23.10;34.70
20115;BME280;10218;42.874;25.320;2023-04-15T10:43:51;96569.78;;;23.33;34.40
20115;BME280;10218;42.874;25.320;2023-04-15T10:49:10;96582.78;;;21.73;35.12
20115;BME280;10218;42.874;25.320;2023-04-15T10:51:39;96575.62;;;23.00;34.43
20115;BME280;10218;42.874;25.320;2023-04-15T10:57:57;96580.91;;;24.19;33.72
20115;BME280;10218;42.874;25.320;2023-04-15T11:00:01;96577.06;;;24.10;33.16
20115;BME280;10218;42.874;25.320;2023-04-15T11:03:04;96578.97;;;23.22;33.73
20115;BME280;10218;42.874;25.320;2023-04-15T11:08:05;96571.00;;;23.73;32.03
20115;BME280;10218;42.874;25.320;2023-04-15T11:13:04;96574.88;;;21.72;34.56
20115;BME280;10218;42.874;25.320;2023-04-15T11:15:37;96578.47;;;21.77;33.75
20115;BME280;10218;42.874;25.320;2023-04-15T11:18:10;96560.38;;;22.99;34.09
20115;BME280;10218;42.874;25.320;2023-04-15T11:20:39;96571.31;;;22.30;34.10
20115;BME280;10218;42.874;25.320;2023-04-15T11:23:07;96565.88;;;23.09;31.60
20115;BME280;10218;42.874;25.320;2023-04-15T11:25:35;96557.69;;;23.09;31.91
20115;BME280;10218;42.874;25.320;2023-04-15T11:28:05;96558.16;;;22.17;32.31
20115;BME280;10218;42.874;25.320;2023-04-15T11:30:35;96561.34;;;22.78;33.80
20115;BME280;10218;42.874;25.320;2023-04-15T11:33:05;96551.41;;;23.03;32.49
20115;BME280;10218;42.874;25.320;2023-04-15T11:35:32;96544.97;;;23.30;31.01
20115;BME280;10218;42.874;25.320;2023-04-15T11:38:10;96550.06;;;24.24;31.48
20115;BME280;10218;42.874;25.320;2023-04-15T11:40:39;96552.28;;;24.27;32.71
20115;BME280;10218;42.874;25.320;2023-04-15T11:43:17;96532.03;;;22.53;33.31
20115;BME280;10218;42.874;25.320;2023-04-15T11:45:58;96531.53;;;22.19;33.85
20115;BME280;10218;42.874;25.320;2023-04-15T11:48:35;96543.56;;;22.70;33.48
20115;BME280;10218;42.874;25.320;2023-04-15T11:51:05;96528.69;;;21.77;34.59
20115;BME280;10218;42.874;25.320;2023-04-15T11:56:17;96536.72;;;22.62;32.56
20115;BME280;10218;42.874;25.320;2023-04-15T11:58:44;96534.06;;;22.73;33.33
20115;BME280;10218;42.874;25.320;2023-04-15T12:01:12;96526.41;;;22.70;32.67
20115;BME280;10218;42.874;25.320;2023-04-15T12:03:42;96541.09;;;21.95;33.70
20115;BME280;10218;42.874;25.320;2023-04-15T12:06:22;96538.13;;;20.39;35.98
20115;BME280;10218;42.874;25.320;2023-04-15T12:09:07;96519.47;;;22.89;33.38
20115;BME280;10218;42.874;25.320;2023-04-15T12:11:35;96513.34;;;22.25;34.01
20115;BME280;10218;42.874;25.320;2023-04-15T12:16:31;96520.19;;;22.32;32.08
20115;BME280;10218;42.874;25.320;2023-04-15T12:19:04;96524.19;;;23.14;31.80
20115;BME280;10218;42.874;25.320;2023-04-15T12:21:34;96525.44;;;23.63;30.35
20115;BME280;10218;42.874;25.320;2023-04-15T12:24:04;96515.63;;;23.72;31.24
20115;BME280;10218;42.874;25.320;2023-04-15T12:29:04;96525.19;;;23.70;29.61
20115;BME280;10218;42.874;25.320;2023-04-15T12:31:36;96526.84;;;23.76;29.42
20115;BME280;10218;42.874;25.320;2023-04-15T12:34:06;96517.84;;;22.98;29.77
20115;BME280;10218;42.874;25.320;2023-04-15T12:36:37;96514.78;;;24.73;28.96
20115;BME280;10218;42.874;25.320;2023-04-15T12:39:04;96508.84;;;24.05;29.06
20115;BME280;10218;42.874;25.320;2023-04-15T12:41:32;96509.94;;;23.94;29.31
20115;BME280;10218;42.874;25.320;2023-04-15T12:43:59;96492.47;;;23.70;29.04
20115;BME280;10218;42.874;25.320;2023-04-15T12:46:26;96497.31;;;25.82;28.04
20115;BME280;10218;42.874;25.320;2023-04-15T12:48:53;96496.22;;;24.60;27.28
20115;BME280;10218;42.874;25.320;2023-04-15T12:51:20;96503.66;;;24.34;27.12
20115;BME280;10218;42.874;25.320;2023-04-15T12:53:47;96509.03;;;24.69;25.90
20115;BME280;10218;42.874;25.320;2023-04-15T12:56:16;96506.78;;;25.61;26.82
20115;BME280;10218;42.874;25.320;2023-04-15T12:58:44;96499.59;;;25.70;27.05
20115;BME280;10218;42.874;25.320;2023-04-15T13:01:11;96505.28;;;23.90;28.83
20115;BME280;10218;42.874;25.320;2023-04-15T13:03:38;96482.78;;;23.17;30.65
20115;BME280;10218;42.874;25.320;2023-04-15T13:06:05;96474.56;;;26.21;27.92
20115;BME280;10218;42.874;25.320;2023-04-15T13:08:32;96479.84;;;26.46;27.62
20115;BME280;10218;42.874;25.320;2023-04-15T13:10:59;96479.50;;;26.19;27.21
20115;BME280;10218;42.874;25.320;2023-04-15T13:13:27;96484.28;;;24.15;29.23